Latest Weather Observations for Casey Skiway*

IDT60801

Issued at 7:32 am EDT Tuesday 12 December 2017 (issued every 30 minutes, with the page automatically refreshed every 10 minutes)

About weather observations | Map of weather stations | Latest weather observations for ANT | Other Formats
Station Details ID: 300060 Name: CASEY SKIWAY SOUTH Lat: -66.28 Lon: 110.76 Height: 390.0 m
Data from the previous 72 hours. | See also: Recent months for locations in Antarctica
Date/Time
EDT
Temp
°C
App
Temp
°C
Dew
Point
°C
Rel
Hum
%
Delta-T
°C
Wind Press
QNH
hPa
Press
MSL
hPa
Rain since
9am
mm
Dir  Spd
km/h
Gust
km/h
Spd
kts
Gust
kts
12/07:30am -5.6 -13.9 -9.0 77 0.7 E 28 35 15 19 984.3 - -
12/07:00am -5.8 -14.9 -9.0 78 0.7 E 32 41 17 22 984.3 - -
12/06:52am -5.8 -14.8 -8.7 80 0.6 E 32 37 17 20 984.3 - -
12/06:30am -6.0 -13.5 -8.6 82 0.5 E 24 30 13 16 984.5 - -
12/06:02am -5.9 -13.8 -8.5 82 0.5 E 26 32 14 17 984.6 - -
12/06:00am -5.9 -13.8 -8.5 82 0.5 E 26 32 14 17 984.6 - -
12/05:52am -5.8 -13.7 -8.4 82 0.5 E 26 32 14 17 984.7 - -
12/05:30am -5.7 -12.8 -7.8 85 0.4 E 22 30 12 16 984.7 - -
12/05:00am -5.6 -13.0 -7.4 87 0.3 E 24 28 13 15 984.8 - -
12/04:43am -5.6 -11.7 -7.4 87 0.3 E 17 22 9 12 985.0 - -
12/04:34am -5.7 -11.0 -7.4 88 0.3 ESE 13 17 7 9 985.1 - -
12/04:30am -5.7 -11.4 -7.4 88 0.3 ESE 15 20 8 11 985.1 - -
12/04:00am -5.6 -12.2 -7.3 88 0.3 E 20 22 11 12 985.1 - -
12/03:30am -5.7 -10.6 -7.4 88 0.3 E 11 13 6 7 985.3 - -
12/03:00am -5.9 -11.2 -7.6 88 0.3 E 13 15 7 8 985.4 - -
12/02:30am -5.9 -10.1 -7.7 87 0.3 SE 7 9 4 5 985.5 - -
12/02:14am -5.8 -10.4 -7.6 87 0.3 ESE 9 15 5 8 985.6 - -
12/02:00am -5.8 -10.0 -7.6 87 0.3 ESE 7 9 4 5 985.6 - -
12/01:30am -5.8 -10.3 -7.3 89 0.2 SSE 9 13 5 7 985.8 - -
12/01:00am -5.7 -10.6 -7.4 88 0.3 SSE 11 13 6 7 985.8 - -
12/12:30am -5.6 -10.2 -7.6 86 0.4 SSE 9 11 5 6 986.0 - -
12/12:00am -5.3 -10.2 -7.4 85 0.4 SSE 11 13 6 7 986.1 - -
 
Date/Time
EDT
Temp
°C
App
Temp
°C
Dew
Point
°C
Rel
Hum
%
Delta-T
°C
Wind Press
QNH
hPa
Press
MSL
hPa
Rain since
9am
mm
Dir  Spd
km/h
Gust
km/h
Spd
kts
Gust
kts
11/11:30pm -5.1 -10.4 -7.2 85 0.4 SSE 13 17 7 9 986.2 - -
11/11:00pm -4.6 -9.1 -6.9 84 0.5 S 9 13 5 7 986.5 - -
11/10:30pm -4.3 -8.3 -7.5 78 0.8 SE 6 7 3 4 986.9 - -
11/10:00pm -2.5 -6.5 -7.2 70 1.3 ESE 6 7 3 4 987.0 - -
11/09:30pm -0.8 -3.9 -6.3 66 1.7 NE 2 4 1 2 987.1 - -
11/09:00pm -1.7 -4.9 -7.0 67 1.5 WNW 2 4 1 2 987.3 - -
11/08:30pm -1.4 -5.4 -7.9 61 1.9 NNW 6 7 3 4 987.3 - -
11/08:00pm 0.0 -4.1 -8.4 53 2.5 N 6 9 3 5 987.5 - -
11/07:30pm -1.2 -4.9 -8.6 57 2.1 NW 4 6 2 3 987.5 - -
11/07:00pm -0.3 -4.0 -8.9 52 2.5 NW 4 6 2 3 987.5 - -
11/06:30pm 1.3 -2.9 -10.2 42 3.4 N 6 9 3 5 987.5 - -
11/06:00pm -0.4 -4.5 -9.0 52 2.5 NNW 6 9 3 5 987.7 - -
11/05:30pm 0.5 -3.7 -9.8 46 3.0 N 6 9 3 5 987.7 - -
11/05:00pm 0.1 -4.3 -9.8 47 2.9 N 7 11 4 6 987.7 - -
11/04:30pm 0.1 -4.2 -11.0 43 3.1 N 6 11 3 6 987.8 - -
11/04:00pm 0.1 -4.4 -11.3 42 3.1 NNE 7 9 4 5 988.0 - -
11/03:30pm -0.2 -5.1 -11.5 42 3.1 N 9 11 5 6 988.1 - -
11/03:00pm -0.4 -4.9 -11.4 43 3.0 N 7 11 4 6 988.0 - -
11/02:30pm -1.4 -6.2 -11.0 48 2.6 N 9 13 5 7 988.2 - -
11/02:00pm -2.6 -7.4 -10.8 53 2.1 NE 9 11 5 6 988.1 - -
11/01:30pm -2.3 -7.1 -10.6 53 2.2 E 9 13 5 7 987.9 - -
11/01:00pm -3.6 -8.8 -10.9 57 1.8 E 11 13 6 7 988.2 - -
11/12:30pm -5.9 -11.6 -11.8 63 1.3 E 13 15 7 8 988.3 - -
11/12:00pm -6.5 -12.9 -12.0 65 1.1 E 17 17 9 9 988.3 - -
11/11:30am -7.8 -14.3 -12.8 67 0.9 E 17 19 9 10 988.3 - -
11/11:00am -8.5 -15.4 -13.3 68 0.8 E 19 19 10 10 988.3 - -
11/10:30am -9.5 -16.4 -14.3 68 0.8 E 19 20 10 11 988.5 - -
11/10:00am -9.4 -16.3 -14.2 68 0.8 E 19 19 10 10 988.6 - -
11/09:30am -10.5 -17.7 -15.1 69 0.7 E 20 20 11 11 988.6 - -
11/08:30am -11.1 -18.3 -15.3 71 0.6 E 20 20 11 11 988.5 - -
11/08:00am -11.6 -18.8 -15.6 72 0.5 E 20 22 11 12 988.5 - -
11/07:30am -11.8 -18.8 -15.8 72 0.5 E 19 20 10 11 988.5 - -
11/07:00am -12.5 -19.5 -15.8 76 0.3 E 19 19 10 10 988.5 - -
11/06:30am -12.7 -19.7 -15.9 77 0.3 E 19 20 10 11 988.4 - -
11/06:00am -13.6 -21.6 -16.0 82 0.1 E 24 24 13 13 988.4 - -
11/05:30am -13.2 -20.8 -15.6 82 0.2 E 22 24 12 13 988.4 - -
11/05:00am -13.2 -20.8 -15.3 84 0.1 E 22 24 12 13 988.4 - -
11/04:30am -12.6 -19.6 -14.6 85 0.1 E 19 20 10 11 988.4 - -
11/04:00am -12.4 -19.3 -14.2 86 0.1 E 19 20 10 11 988.6 - -
11/03:30am -11.6 -17.7 -13.5 86 0.1 ENE 15 17 8 9 988.7 - -
11/03:15am -10.9 -17.0 -12.5 88 0.1 ENE 15 17 8 9 988.7 - -
11/03:00am -11.1 -17.2 -12.5 89 0.0 ENE 15 17 8 9 988.6 - -
11/02:43am -11.4 -17.5 -12.8 89 0.0 ENE 15 17 8 9 988.6 - -
11/02:30am -11.6 -18.1 -13.2 88 0.0 ENE 17 17 9 9 988.6 - -
11/02:00am -11.5 -17.6 -13.5 85 0.1 ENE 15 17 8 9 988.5 - -
11/01:30am -11.3 -17.4 -13.2 86 0.1 ENE 15 15 8 8 988.5 - -
11/01:00am -10.9 -16.6 -12.9 85 0.1 ENE 13 15 7 8 988.5 - -
11/12:30am -9.4 -14.7 -11.9 82 0.3 ENE 11 13 6 7 988.5 - -
11/12:00am -7.5 -12.3 -10.2 81 0.4 NE 9 9 5 5 988.5 - -
 
Date/Time
EDT
Temp
°C
App
Temp
°C
Dew
Point
°C
Rel
Hum
%
Delta-T
°C
Wind Press
QNH
hPa
Press
MSL
hPa
Rain since
9am
mm
Dir  Spd
km/h
Gust
km/h
Spd
kts
Gust
kts
10/11:30pm -5.8 -10.1 -8.7 80 0.6 NNE 7 9 4 5 988.6 - -
10/11:00pm -5.3 -9.9 -8.2 80 0.6 NNE 9 11 5 6 988.7 - -
10/10:30pm -5.0 -9.6 -8.1 79 0.7 N 9 13 5 7 988.8 - -
10/10:00pm -4.4 -9.0 -8.1 75 0.9 N 9 11 5 6 988.7 - -
10/09:30pm -4.1 -9.1 -8.4 72 1.1 NNW 11 11 6 6 988.7 - -
10/09:00pm -3.8 -8.8 -8.3 71 1.1 NNW 11 13 6 7 988.6 - -
10/08:30pm -3.6 -8.6 -8.3 70 1.2 NNW 11 13 6 7 988.5 - -
10/08:22pm -3.6 -8.6 -8.1 71 1.1 NNW 11 13 6 7 988.5 - -
10/08:00pm -3.6 -8.2 -7.7 73 1.1 NNW 9 13 5 7 988.5 - -
10/07:54pm -3.6 -8.2 -7.7 73 1.0 NNW 9 13 5 7 988.5 - -
10/07:39pm -4.3 -8.9 -7.9 76 0.9 NNW 9 11 5 6 988.4 - -
10/07:30pm -4.4 -9.4 -7.8 77 0.8 NNW 11 13 6 7 988.4 - -
10/07:00pm -4.0 -8.6 -8.1 73 1.0 NW 9 17 5 9 988.3 - -
10/06:30pm -1.8 -6.1 -8.7 59 1.9 NNW 7 9 4 5 988.3 - -
10/06:28pm -1.6 -5.9 -8.5 59 1.9 NNW 7 11 4 6 988.3 - -
10/06:00pm -2.2 -6.5 -8.7 61 1.8 NNW 7 9 4 5 988.1 - -
10/05:52pm -2.0 -6.3 -8.9 59 1.9 NNW 7 9 4 5 988.0 - -
10/05:30pm -2.2 -6.8 -8.1 64 1.6 NNW 9 11 5 6 987.9 - -
10/05:00pm -0.4 -5.0 -7.6 58 2.2 NNW 9 11 5 6 987.7 - -
10/04:30pm 1.0 -3.0 -7.7 52 2.7 NNW 6 9 3 5 987.5 - -
10/04:06pm 1.0 -3.0 -7.7 52 2.7 N 6 7 3 4 987.4 - -
10/04:00pm 1.1 -2.9 -7.6 52 2.7 NNW 6 9 3 5 987.4 - -
10/03:34pm -0.1 -4.1 -8.0 55 2.4 NNW 6 9 3 5 987.2 - -
10/03:30pm 0.4 -3.6 -7.3 56 2.4 NNW 6 9 3 5 987.2 - -
10/03:09pm -0.8 -5.0 -7.8 59 2.1 NNW 7 9 4 5 987.1 - -
10/03:00pm -1.4 -5.6 -7.7 62 1.8 NNW 7 11 4 6 987.0 - -
10/02:30pm 0.0 -4.1 -8.7 52 2.6 NNW 6 9 3 5 986.9 - -
10/02:00pm 1.8 -2.2 -8.0 48 3.2 N 6 6 3 3 986.6 - -
10/01:30pm 1.4 -2.3 -8.1 49 3.0 N 4 6 2 3 986.4 - -
10/01:00pm 0.5 -2.8 -8.2 52 2.6 ENE 2 2 1 1 986.1 - -
10/12:30pm -0.5 -3.4 -8.2 56 2.3 CALM 0 2 0 1 986.0 - -
10/12:00pm -1.5 -5.1 -7.6 63 1.8 N 4 4 2 2 985.9 - -
10/11:30am -2.4 -6.0 -7.9 66 1.5 NNE 4 6 2 3 985.8 - -
10/11:00am -2.3 -5.6 -7.8 66 1.5 NNE 2 2 1 1 985.6 - -
10/10:30am -3.4 -7.1 -8.4 68 1.3 NE 4 4 2 2 985.5 - -
10/10:00am -4.3 -8.0 -8.9 70 1.1 ENE 4 7 2 4 985.2 - -
10/09:30am -4.8 -8.1 -8.7 74 0.9 ENE 2 4 1 2 985.0 - -
10/09:00am -6.2 -10.5 -9.2 79 0.6 E 7 9 4 5 984.9 - -
10/08:30am -6.8 -11.5 -9.5 81 0.5 E 9 11 5 6 984.7 - -
10/08:00am -7.1 -11.8 -9.5 83 0.4 E 9 11 5 6 984.4 - -
10/07:30am -7.2 -11.9 -9.3 85 0.3 E 9 11 5 6 984.2 - -
10/07:00am -7.5 -12.2 -9.4 86 0.2 ENE 9 11 5 6 984.0 - -
10/06:30am -7.7 -12.4 -9.5 87 0.2 ENE 9 13 5 7 983.7 - -
10/06:00am -7.7 -12.8 -9.3 88 0.2 ENE 11 11 6 6 983.5 - -
10/05:30am -7.7 -12.8 -9.3 88 0.2 ENE 11 13 6 7 983.2 - -
10/05:00am -7.7 -12.4 -9.3 88 0.2 ENE 9 13 5 7 983.0 - -
10/04:30am -7.6 -12.7 -9.4 87 0.2 ENE 11 13 6 7 982.9 - -
10/04:00am -7.4 -12.5 -9.3 86 0.2 ENE 11 13 6 7 982.7 - -
10/03:30am -7.3 -12.4 -9.4 85 0.3 ENE 11 13 6 7 982.5 - -
10/03:00am -7.0 -11.7 -9.7 81 0.5 E 9 13 5 7 982.3 - -
10/02:30am -6.8 -11.6 -10.3 76 0.7 ENE 9 13 5 7 982.2 - -
10/02:00am -7.0 -11.4 -10.3 77 0.6 E 7 13 4 7 982.0 - -
10/01:30am -6.9 -12.4 -9.6 81 0.5 ENE 13 17 7 9 981.9 - -
10/01:00am -6.6 -11.8 -10.1 76 0.7 NE 11 17 6 9 981.8 - -
10/12:30am -6.3 -11.0 -9.8 76 0.7 ENE 9 13 5 7 981.7 - -
10/12:00am -6.4 -11.1 -9.4 79 0.6 NE 9 13 5 7 981.6 - -
 
Date/Time
EDT
Temp
°C
App
Temp
°C
Dew
Point
°C
Rel
Hum
%
Delta-T
°C
Wind Press
QNH
hPa
Press
MSL
hPa
Rain since
9am
mm
Dir  Spd
km/h
Gust
km/h
Spd
kts
Gust
kts
09/11:30pm -6.3 -12.5 -8.9 82 0.5 NNE 17 20 9 11 981.3 - -
09/11:00pm -5.8 -10.4 -8.5 81 0.5 NNE 9 13 5 7 981.3 - -
09/10:30pm -6.0 -11.4 -8.1 85 0.4 NNE 13 15 7 8 981.0 - -
09/10:18pm -6.2 -12.0 -8.3 85 0.4 NE 15 19 8 10 981.0 - -
09/10:00pm -6.1 -12.3 -8.4 84 0.4 NE 17 20 9 11 981.0 - -

Other Formats:

Comma delimited format used in spreadsheet applications
http://www.bom.gov.au/fwo/IDT60803/IDT60803.89809.axf

JavaScript Object Notation format (JSON) in row-major order
http://www.bom.gov.au/fwo/IDT60803/IDT60803.89809.json